createdAt,value
2022-07-29T00:02:16.040Z,99.20
2022-07-29T00:04:42.893Z,99.90
2022-07-29T00:07:09.777Z,99.90
2022-07-29T00:09:50.350Z,99.90
2022-07-29T00:12:25.235Z,99.90
2022-07-29T00:14:53.305Z,99.90
2022-07-29T00:17:20.089Z,99.90
2022-07-29T00:19:46.848Z,99.50
2022-07-29T00:22:13.619Z,99.70
2022-07-29T00:24:40.412Z,99.90
2022-07-29T00:27:07.171Z,99.90
2022-07-29T00:29:34.927Z,99.90
2022-07-29T00:32:02.519Z,99.90
2022-07-29T00:34:48.065Z,99.90
2022-07-29T00:37:14.817Z,99.90
2022-07-29T00:39:41.645Z,99.90
2022-07-29T00:42:08.980Z,99.90
2022-07-29T00:44:39.107Z,99.90
2022-07-29T00:47:06.236Z,99.50
2022-07-29T00:49:33.520Z,99.30
2022-07-29T00:52:01.693Z,99.10
2022-07-29T00:54:28.514Z,99.20
2022-07-29T00:56:55.289Z,99.20
2022-07-29T00:59:22.081Z,99.20
2022-07-29T01:01:48.918Z,99.40
2022-07-29T01:04:16.164Z,99.50
2022-07-29T01:06:44.114Z,99.90
2022-07-29T01:09:10.864Z,99.90
2022-07-29T01:11:37.634Z,99.90
2022-07-29T01:14:04.580Z,99.90
2022-07-29T01:16:37.116Z,99.90
2022-07-29T01:19:08.804Z,99.90
2022-07-29T01:21:51.933Z,99.90
2022-07-29T01:24:21.926Z,99.90
2022-07-29T01:27:05.627Z,99.90
2022-07-29T01:29:36.027Z,99.90
2022-07-29T01:32:08.886Z,99.90
2022-07-29T01:34:57.141Z,99.90
2022-07-29T01:37:31.041Z,99.90
2022-07-29T01:39:58.549Z,99.90
2022-07-29T01:42:43.553Z,99.90
2022-07-29T01:45:22.430Z,99.90
2022-07-29T01:47:57.279Z,99.90
2022-07-29T01:50:24.692Z,99.90
2022-07-29T01:52:53.913Z,99.90
2022-07-29T01:55:21.225Z,99.90
2022-07-29T01:57:48.745Z,99.90
2022-07-29T02:00:15.913Z,99.90
2022-07-29T02:02:43.563Z,99.90
2022-07-29T02:05:11.369Z,99.90
2022-07-29T02:07:38.156Z,99.90
2022-07-29T02:10:05.138Z,99.90
2022-07-29T02:12:31.898Z,99.90
2022-07-29T02:14:58.639Z,99.90
2022-07-29T02:17:26.431Z,99.90
2022-07-29T02:19:53.765Z,99.90
2022-07-29T02:22:20.591Z,99.90
2022-07-29T02:24:47.351Z,99.90
2022-07-29T02:27:14.136Z,99.90
2022-07-29T02:29:40.909Z,99.90
2022-07-29T02:32:07.732Z,99.90
2022-07-29T02:34:35.216Z,99.90
2022-07-29T02:37:02.038Z,99.90
2022-07-29T02:39:28.800Z,99.90
2022-07-29T02:42:00.354Z,99.90
2022-07-29T02:44:31.368Z,99.90
2022-07-29T02:47:04.365Z,99.90
2022-07-29T02:49:52.362Z,99.90
2022-07-29T02:52:25.312Z,99.90
2022-07-29T02:54:59.477Z,99.90
2022-07-29T02:57:26.218Z,99.90
2022-07-29T02:59:53.011Z,99.90
2022-07-29T03:02:19.821Z,99.90
2022-07-29T03:04:46.691Z,99.90
2022-07-29T03:07:14.315Z,99.90
2022-07-29T03:09:42.814Z,99.90
2022-07-29T03:12:09.716Z,99.90
2022-07-29T03:14:36.513Z,99.90
2022-07-29T03:17:03.305Z,99.90
2022-07-29T03:19:30.068Z,99.90
2022-07-29T03:21:57.595Z,99.90
2022-07-29T03:24:28.230Z,99.90
2022-07-29T03:26:55.863Z,99.90
2022-07-29T03:29:22.637Z,99.90
2022-07-29T03:31:51.521Z,99.90
2022-07-29T03:34:18.908Z,99.90
2022-07-29T03:36:47.166Z,99.90
2022-07-29T03:39:14.848Z,99.90
2022-07-29T03:41:42.762Z,99.90
2022-07-29T03:44:09.771Z,99.90
2022-07-29T03:46:36.636Z,99.90
2022-07-29T03:49:04.154Z,99.90
2022-07-29T03:51:33.415Z,99.90
2022-07-29T03:54:05.027Z,99.90
2022-07-29T03:56:38.353Z,99.90
2022-07-29T03:59:05.198Z,99.90
2022-07-29T04:01:32.050Z,99.90
2022-07-29T04:03:59.101Z,98.80
2022-07-29T04:06:26.964Z,95.40
2022-07-29T04:08:53.722Z,93.40
2022-07-29T04:11:20.498Z,92.10
2022-07-29T04:13:47.302Z,89.70
2022-07-29T04:16:14.146Z,84.90
2022-07-29T04:18:40.934Z,81.30
2022-07-29T04:21:07.848Z,78.60
2022-07-29T04:23:34.656Z,75.00
2022-07-29T04:26:02.204Z,73.10
2022-07-29T04:28:29.219Z,70.90
2022-07-29T04:30:56.044Z,68.90
2022-07-29T04:33:22.846Z,67.30
2022-07-29T04:35:52.454Z,65.30
2022-07-29T04:38:21.933Z,63.80
2022-07-29T04:40:49.825Z,62.50
2022-07-29T04:43:16.910Z,60.40
2022-07-29T04:45:49.462Z,59.60
2022-07-29T04:48:16.247Z,58.90
2022-07-29T04:50:43.198Z,57.50
2022-07-29T04:53:10.049Z,56.90
2022-07-29T04:55:39.127Z,57.10
2022-07-29T04:58:06.143Z,55.60
2022-07-29T05:00:33.433Z,55.40
2022-07-29T05:03:00.828Z,53.80
2022-07-29T05:05:27.750Z,54.10
2022-07-29T05:07:54.620Z,53.70
2022-07-29T05:10:21.389Z,53.60
2022-07-29T05:12:48.267Z,52.90
2022-07-29T05:15:15.136Z,51.90
2022-07-29T05:17:41.901Z,50.90
2022-07-29T05:20:08.935Z,50.50
2022-07-29T05:22:35.686Z,50.20
2022-07-29T05:25:08.504Z,49.90
2022-07-29T05:27:36.287Z,48.30
2022-07-29T05:30:03.187Z,47.90
2022-07-29T05:32:29.949Z,47.70
2022-07-29T05:34:56.686Z,47.70
2022-07-29T05:37:23.569Z,46.40
2022-07-29T05:39:56.986Z,46.30
2022-07-29T05:42:24.812Z,46.00
2022-07-29T05:44:51.926Z,46.20
2022-07-29T05:47:18.763Z,47.00
2022-07-29T05:49:45.536Z,45.40
2022-07-29T05:52:12.301Z,45.00
2022-07-29T05:54:39.177Z,44.80
2022-07-29T05:57:06.470Z,44.20
2022-07-29T05:59:39.111Z,44.20
2022-07-29T06:02:06.278Z,43.90
2022-07-29T06:04:33.556Z,43.60
2022-07-29T06:07:00.358Z,43.40
2022-07-29T06:09:27.149Z,43.00
2022-07-29T06:11:53.949Z,42.90
2022-07-29T06:14:20.908Z,42.30
2022-07-29T06:16:47.732Z,41.90
2022-07-29T06:19:14.602Z,41.60
2022-07-29T06:21:44.615Z,41.40
2022-07-29T06:24:12.021Z,41.50
2022-07-29T06:26:40.017Z,40.50
2022-07-29T06:29:07.347Z,40.60
2022-07-29T06:31:34.110Z,40.70
2022-07-29T06:34:00.947Z,40.60
2022-07-29T06:36:31.214Z,39.40
2022-07-29T06:38:57.973Z,39.60
2022-07-29T06:41:24.884Z,40.00
2022-07-29T06:43:54.554Z,39.30
2022-07-29T06:46:22.514Z,39.00
2022-07-29T06:48:49.751Z,39.30
2022-07-29T06:51:21.806Z,39.00
2022-07-29T06:53:58.229Z,38.50
2022-07-29T06:56:26.885Z,38.00
2022-07-29T06:58:53.812Z,38.20
2022-07-29T07:01:21.103Z,37.60
2022-07-29T07:03:48.593Z,37.60
2022-07-29T07:06:15.410Z,37.80
2022-07-29T07:08:42.220Z,38.30
2022-07-29T07:11:09.669Z,37.20
2022-07-29T07:13:37.005Z,37.00
2022-07-29T07:16:04.039Z,36.70
2022-07-29T07:18:30.823Z,37.30
2022-07-29T07:20:57.814Z,36.60
2022-07-29T07:23:24.659Z,35.60
2022-07-29T07:25:51.553Z,35.30
2022-07-29T07:28:18.349Z,35.40
2022-07-29T07:30:51.577Z,35.40
2022-07-29T07:33:18.432Z,36.00
2022-07-29T07:35:45.454Z,35.30
2022-07-29T07:38:12.291Z,35.70
2022-07-29T07:40:39.096Z,35.30
2022-07-29T07:43:05.901Z,35.90
2022-07-29T07:45:34.011Z,35.00
2022-07-29T07:48:00.962Z,34.50
2022-07-29T07:50:27.849Z,34.50
2022-07-29T07:52:56.265Z,35.10
2022-07-29T07:55:23.910Z,35.20
2022-07-29T07:57:50.774Z,33.90
2022-07-29T08:00:17.735Z,33.60
2022-07-29T08:02:46.156Z,34.20
2022-07-29T08:05:16.945Z,33.70
2022-07-29T08:07:44.807Z,33.60
2022-07-29T08:10:11.806Z,33.70
2022-07-29T08:12:38.635Z,33.40
2022-07-29T08:15:05.700Z,33.00
2022-07-29T08:17:35.362Z,31.80
2022-07-29T08:20:02.383Z,32.70
2022-07-29T08:22:30.144Z,32.00
2022-07-29T08:24:57.292Z,32.20
2022-07-29T08:27:43.087Z,32.30
2022-07-29T08:30:11.404Z,31.90
2022-07-29T08:32:55.220Z,32.10
2022-07-29T08:35:23.083Z,32.00
2022-07-29T08:37:50.079Z,30.70
2022-07-29T08:40:16.945Z,31.60
2022-07-29T08:42:49.073Z,31.50
2022-07-29T08:45:16.004Z,32.00
2022-07-29T08:47:45.967Z,32.30
2022-07-29T08:50:16.250Z,31.80
2022-07-29T08:52:43.135Z,32.00
2022-07-29T08:55:10.831Z,32.20
2022-07-29T08:57:37.616Z,31.40
2022-07-29T09:00:08.083Z,31.50
2022-07-29T09:02:43.250Z,32.30
2022-07-29T09:05:13.581Z,32.10
2022-07-29T09:07:40.617Z,32.10
2022-07-29T09:10:07.641Z,31.30
2022-07-29T09:12:38.037Z,31.40
2022-07-29T09:15:05.370Z,30.90
2022-07-29T09:17:50.448Z,31.10
2022-07-29T09:20:18.178Z,31.30
2022-07-29T09:22:48.207Z,31.10
2022-07-29T09:25:14.979Z,30.90
2022-07-29T09:27:42.147Z,31.30
2022-07-29T09:30:11.686Z,30.90
2022-07-29T09:32:57.550Z,30.80
2022-07-29T09:35:25.600Z,30.50
2022-07-29T09:37:52.518Z,30.20
2022-07-29T09:40:20.628Z,31.00
2022-07-29T09:42:55.481Z,31.20
2022-07-29T09:45:30.382Z,31.80
2022-07-29T09:47:59.965Z,32.30
2022-07-29T09:50:41.621Z,31.60
2022-07-29T09:53:10.541Z,31.40
2022-07-29T09:55:54.653Z,32.00
2022-07-29T09:58:22.636Z,32.70
2022-07-29T10:00:50.737Z,32.90
2022-07-29T10:03:17.834Z,33.50
2022-07-29T10:05:44.904Z,34.50
2022-07-29T10:08:13.340Z,34.80
2022-07-29T10:10:41.105Z,35.60
2022-07-29T10:13:15.387Z,37.30
2022-07-29T10:15:44.775Z,36.90
2022-07-29T10:18:12.301Z,37.90
2022-07-29T10:20:39.100Z,37.70
2022-07-29T10:23:06.134Z,37.40
2022-07-29T10:25:33.005Z,38.60
2022-07-29T10:27:59.819Z,38.90
2022-07-29T10:30:26.670Z,39.10
2022-07-29T10:33:08.865Z,39.00
2022-07-29T10:35:54.472Z,39.30
2022-07-29T10:38:33.216Z,39.00
2022-07-29T10:41:21.468Z,39.00
2022-07-29T10:43:48.375Z,39.30
2022-07-29T10:46:19.521Z,39.30
2022-07-29T10:49:05.081Z,39.20
2022-07-29T10:51:53.046Z,38.00
2022-07-29T10:54:20.146Z,39.50
2022-07-29T10:56:47.775Z,39.30
2022-07-29T10:59:21.468Z,39.60
2022-07-29T11:04:47.089Z,38.90
2022-07-29T11:07:17.469Z,38.10
2022-07-29T11:09:47.676Z,39.00
2022-07-29T11:12:39.440Z,38.60
2022-07-29T11:15:07.245Z,39.00
2022-07-29T11:17:53.313Z,38.90
2022-07-29T11:20:38.800Z,39.60
2022-07-29T11:23:33.339Z,39.30
2022-07-29T11:26:27.522Z,38.90
2022-07-29T11:28:56.173Z,38.20
2022-07-29T11:31:32.206Z,38.60
2022-07-29T11:34:20.859Z,38.00
2022-07-29T11:37:06.674Z,39.10
2022-07-29T11:39:37.204Z,38.80
2022-07-29T11:42:28.257Z,39.00
2022-07-29T11:45:40.979Z,39.20
2022-07-29T11:47:54.217Z,38.40
2022-07-29T11:50:28.430Z,37.90
2022-07-29T11:52:55.298Z,38.50
2022-07-29T11:55:23.683Z,38.40
2022-07-29T11:58:03.982Z,38.30
2022-07-29T12:00:49.615Z,39.20
2022-07-29T12:03:35.268Z,38.40
2022-07-29T12:06:03.805Z,38.10
2022-07-29T12:08:32.129Z,38.40
2022-07-29T12:10:59.521Z,38.40
2022-07-29T12:13:37.036Z,38.80
2022-07-29T12:16:07.963Z,38.60
2022-07-29T12:18:40.045Z,38.20
2022-07-29T12:21:12.558Z,38.50
2022-07-29T12:23:39.468Z,39.50
2022-07-29T12:26:10.871Z,39.50
2022-07-29T12:28:49.115Z,39.40
2022-07-29T12:31:41.965Z,39.50
2022-07-29T12:34:03.998Z,39.20
2022-07-29T12:36:31.103Z,38.80
2022-07-29T12:38:57.911Z,38.70
2022-07-29T12:41:29.290Z,39.30
2022-07-29T12:44:00.627Z,37.90
2022-07-29T12:46:29.797Z,38.40
2022-07-29T12:49:06.113Z,38.00
2022-07-29T12:51:40.481Z,38.60
2022-07-29T12:57:09.547Z,38.00
2022-07-29T12:59:59.321Z,38.50
2022-07-29T13:02:26.189Z,38.70
2022-07-29T13:04:57.117Z,39.30
2022-07-29T13:07:54.287Z,39.00
2022-07-29T13:10:15.457Z,39.30
2022-07-29T13:13:01.198Z,38.80
2022-07-29T13:15:28.473Z,38.30
2022-07-29T13:17:55.234Z,39.00
2022-07-29T13:20:25.445Z,38.30
2022-07-29T13:22:52.219Z,38.60
2022-07-29T13:25:25.762Z,38.80
2022-07-29T13:27:52.629Z,37.90
2022-07-29T13:30:20.149Z,39.10
2022-07-29T13:32:53.221Z,38.80
2022-07-29T13:35:20.476Z,37.80
2022-07-29T13:37:49.839Z,37.60
2022-07-29T13:44:04.484Z,38.60
2022-07-29T13:46:31.326Z,38.40
2022-07-29T13:48:58.238Z,38.40
2022-07-29T13:51:25.074Z,38.20
2022-07-29T13:53:51.882Z,37.80
2022-07-29T13:56:18.640Z,37.90
2022-07-29T13:58:46.001Z,37.70
2022-07-29T14:01:13.700Z,37.30
2022-07-29T14:03:45.655Z,37.60
2022-07-29T14:06:12.846Z,38.50
2022-07-29T14:08:39.605Z,38.30
2022-07-29T14:11:06.397Z,38.20
2022-07-29T14:13:33.181Z,38.00
2022-07-29T14:16:00.145Z,38.00
2022-07-29T14:18:26.985Z,38.10
2022-07-29T14:20:53.823Z,37.70
2022-07-29T14:23:20.675Z,37.20
2022-07-29T14:25:47.476Z,37.10
2022-07-29T14:28:16.265Z,38.00
2022-07-29T14:30:43.432Z,37.50
2022-07-29T14:33:11.244Z,37.70
2022-07-29T14:35:38.117Z,37.50
2022-07-29T14:38:04.892Z,38.00
2022-07-29T14:40:31.673Z,38.20
2022-07-29T14:42:58.482Z,37.40
2022-07-29T14:45:25.282Z,38.00
2022-07-29T14:47:56.515Z,38.20
2022-07-29T14:50:29.893Z,38.50
2022-07-29T14:52:59.243Z,38.00
2022-07-29T14:55:26.091Z,37.40
2022-07-29T14:57:57.950Z,37.30
2022-07-29T15:00:33.299Z,37.10
2022-07-29T15:03:02.260Z,37.70
2022-07-29T15:05:29.964Z,37.60
2022-07-29T15:07:56.909Z,38.00
2022-07-29T15:10:24.902Z,38.20
2022-07-29T15:12:51.714Z,38.40
2022-07-29T15:15:18.497Z,38.40
2022-07-29T15:17:45.296Z,38.00
2022-07-29T15:20:13.053Z,38.50
2022-07-29T15:22:40.324Z,38.60
2022-07-29T15:25:07.236Z,38.40
2022-07-29T15:27:34.061Z,38.30
2022-07-29T15:30:00.845Z,37.90
2022-07-29T15:32:27.620Z,38.30
2022-07-29T15:34:54.386Z,38.30
2022-07-29T15:37:21.481Z,38.40
2022-07-29T15:39:48.251Z,38.40
2022-07-29T15:42:15.039Z,38.30
2022-07-29T15:44:44.643Z,38.40
2022-07-29T15:47:11.415Z,38.40
2022-07-29T15:49:47.721Z,37.60
2022-07-29T15:52:25.259Z,37.50
2022-07-29T15:54:53.637Z,37.80
2022-07-29T15:57:20.428Z,38.00
2022-07-29T15:59:47.224Z,37.80
2022-07-29T16:02:13.976Z,37.60
2022-07-29T16:04:40.805Z,38.00
2022-07-29T16:07:07.745Z,38.30
2022-07-29T16:09:34.521Z,38.30
2022-07-29T16:12:01.297Z,38.00
2022-07-29T16:14:28.883Z,38.70
2022-07-29T16:16:56.438Z,38.30
2022-07-29T16:19:23.547Z,38.80
2022-07-29T16:21:50.339Z,40.70
2022-07-29T16:24:17.145Z,39.60
2022-07-29T16:26:43.889Z,39.40
2022-07-29T16:29:10.655Z,39.00
2022-07-29T16:31:37.449Z,39.20
2022-07-29T16:34:04.291Z,38.80
2022-07-29T16:36:31.498Z,38.80
2022-07-29T16:38:58.271Z,38.90
2022-07-29T16:41:25.094Z,39.00
2022-07-29T16:43:51.903Z,38.50
2022-07-29T16:46:19.366Z,38.50
2022-07-29T16:48:47.597Z,38.30
2022-07-29T16:51:15.415Z,38.30
2022-07-29T16:53:42.340Z,38.70
2022-07-29T16:56:12.849Z,38.30
2022-07-29T16:58:43.536Z,38.20
2022-07-29T17:01:11.414Z,38.50
2022-07-29T17:04:00.172Z,38.50
2022-07-29T17:06:28.744Z,39.00
2022-07-29T17:08:56.722Z,39.40
2022-07-29T17:11:52.530Z,39.60
2022-07-29T17:14:10.308Z,39.70
2022-07-29T17:16:37.147Z,39.80
2022-07-29T17:19:04.081Z,40.20
2022-07-29T17:21:30.902Z,40.40
2022-07-29T17:23:59.459Z,40.70
2022-07-29T17:26:28.015Z,40.90
2022-07-29T17:28:55.321Z,40.80
2022-07-29T17:31:22.208Z,41.00
2022-07-29T17:33:49.078Z,41.40
2022-07-29T17:36:24.887Z,41.70
2022-07-29T17:38:52.912Z,41.70
2022-07-29T17:41:20.021Z,41.90
2022-07-29T17:43:46.871Z,42.20
2022-07-29T17:46:13.727Z,42.30
2022-07-29T17:48:41.230Z,42.50
2022-07-29T17:51:08.289Z,42.70
2022-07-29T17:53:35.152Z,43.00
2022-07-29T17:56:02.153Z,43.20
2022-07-29T17:58:28.952Z,43.30
2022-07-29T18:00:55.803Z,43.40
2022-07-29T18:03:22.716Z,43.60
2022-07-29T18:05:49.677Z,43.80
2022-07-29T18:08:17.123Z,44.10
2022-07-29T18:16:05.233Z,45.40
2022-07-29T18:18:32.035Z,45.90
2022-07-29T18:20:58.829Z,45.90
2022-07-29T18:23:25.669Z,46.30
2022-07-29T18:25:52.493Z,47.10
2022-07-29T18:28:19.292Z,47.90
2022-07-29T18:30:47.591Z,48.30
2022-07-29T18:33:22.065Z,48.60
2022-07-29T18:35:50.025Z,48.80
2022-07-29T18:38:16.910Z,48.90
2022-07-29T18:40:45.797Z,49.40
2022-07-29T18:43:12.887Z,49.70
2022-07-29T18:45:39.773Z,50.10
2022-07-29T18:48:12.633Z,50.20
2022-07-29T18:50:40.615Z,50.30
2022-07-29T18:53:07.526Z,50.40
2022-07-29T18:55:34.333Z,50.60
2022-07-29T18:58:01.195Z,50.70
2022-07-29T19:00:28.111Z,50.90
2022-07-29T19:02:56.827Z,51.30
2022-07-29T19:05:23.785Z,51.40
2022-07-29T19:07:50.770Z,51.60
2022-07-29T19:10:17.693Z,52.10
2022-07-29T19:12:44.535Z,52.40
2022-07-29T19:15:11.520Z,52.90
2022-07-29T19:17:38.902Z,53.30
2022-07-29T19:20:06.529Z,53.80
2022-07-29T19:22:34.244Z,54.20
2022-07-29T19:25:01.102Z,54.30
2022-07-29T19:27:28.042Z,54.50
2022-07-29T19:29:58.785Z,54.70
2022-07-29T19:32:26.244Z,54.80
2022-07-29T19:35:11.353Z,55.00
2022-07-29T19:37:38.143Z,55.00
2022-07-29T19:40:05.714Z,55.40
2022-07-29T19:42:32.671Z,55.60
2022-07-29T19:44:59.452Z,56.00
2022-07-29T19:47:26.254Z,56.10
2022-07-29T19:49:53.099Z,56.20
2022-07-29T19:52:19.918Z,56.30
2022-07-29T19:54:46.841Z,56.60
2022-07-29T19:57:14.158Z,57.10
2022-07-29T19:59:41.264Z,57.70
2022-07-29T20:02:11.010Z,58.10
2022-07-29T20:04:38.724Z,58.40
2022-07-29T20:07:05.742Z,58.50
2022-07-29T20:09:32.519Z,58.80
2022-07-29T20:11:59.329Z,58.80
2022-07-29T20:14:26.140Z,58.90
2022-07-29T20:16:54.561Z,58.60
2022-07-29T20:19:21.446Z,58.50
2022-07-29T20:21:48.356Z,58.60
2022-07-29T20:24:15.181Z,58.60
2022-07-29T20:26:41.964Z,58.50
2022-07-29T20:29:09.218Z,58.80
2022-07-29T20:31:36.125Z,59.10
2022-07-29T20:34:03.044Z,59.30
2022-07-29T20:36:29.896Z,59.50
2022-07-29T20:38:56.717Z,59.30
2022-07-29T20:41:23.575Z,59.20
2022-07-29T20:43:50.366Z,59.30
2022-07-29T20:46:18.012Z,59.20
2022-07-29T20:48:45.235Z,59.20
2022-07-29T20:51:12.091Z,59.20
2022-07-29T20:53:39.952Z,59.30
2022-07-29T20:56:06.849Z,59.30
2022-07-29T20:58:34.187Z,59.50
2022-07-29T21:01:01.088Z,59.60
2022-07-29T21:03:30.078Z,59.60
2022-07-29T21:05:56.836Z,59.80
2022-07-29T21:08:23.606Z,60.00
2022-07-29T21:10:50.502Z,60.40
2022-07-29T21:13:17.413Z,60.80
2022-07-29T21:15:46.618Z,61.10
2022-07-29T21:18:32.397Z,61.30
2022-07-29T21:20:59.824Z,61.40
2022-07-29T21:23:26.916Z,62.10
2022-07-29T21:25:53.882Z,61.50
2022-07-29T21:28:26.617Z,61.80
2022-07-29T21:30:53.924Z,61.70
2022-07-29T21:33:20.774Z,62.00
2022-07-29T21:38:34.611Z,62.20
2022-07-29T21:41:01.484Z,62.20
2022-07-29T21:43:28.959Z,62.40
2022-07-29T21:45:56.210Z,62.50
2022-07-29T21:48:23.203Z,62.80
2022-07-29T21:50:50.114Z,63.00
2022-07-29T21:53:16.920Z,63.30
2022-07-29T21:55:43.737Z,63.40
2022-07-29T21:58:15.456Z,63.70
2022-07-29T22:00:42.496Z,63.90
2022-07-29T22:03:09.362Z,64.10
2022-07-29T22:05:36.313Z,64.20
2022-07-29T22:08:03.320Z,64.60
2022-07-29T22:10:30.664Z,64.80
2022-07-29T22:12:57.894Z,65.00
2022-07-29T22:15:24.865Z,65.20
2022-07-29T22:17:51.650Z,65.40
2022-07-29T22:20:18.638Z,65.70
2022-07-29T22:22:45.472Z,65.90
2022-07-29T22:25:12.246Z,66.20
2022-07-29T22:27:39.075Z,66.50
2022-07-29T22:30:06.308Z,66.90
2022-07-29T22:32:33.171Z,66.90
2022-07-29T22:34:59.963Z,67.20
2022-07-29T22:37:26.746Z,67.50
2022-07-29T22:39:53.554Z,68.00
2022-07-29T22:42:20.404Z,68.50
2022-07-29T22:44:47.163Z,68.80
2022-07-29T22:47:13.944Z,69.10
2022-07-29T22:49:40.758Z,69.20
2022-07-29T22:52:07.556Z,69.50
2022-07-29T22:54:34.357Z,69.70
2022-07-29T22:57:01.929Z,70.00
2022-07-29T22:59:28.958Z,70.30
2022-07-29T23:01:55.793Z,70.40
2022-07-29T23:04:23.836Z,70.80
2022-07-29T23:06:51.202Z,71.30
2022-07-29T23:09:18.778Z,71.90
2022-07-29T23:11:46.211Z,72.20
2022-07-29T23:14:13.158Z,72.80
2022-07-29T23:16:40.000Z,73.30
2022-07-29T23:19:06.846Z,73.80
2022-07-29T23:21:33.709Z,74.20
2022-07-29T23:24:00.534Z,74.70
2022-07-29T23:26:28.181Z,75.00
2022-07-29T23:28:54.997Z,75.20
2022-07-29T23:31:21.868Z,75.50
2022-07-29T23:33:48.673Z,76.00
2022-07-29T23:36:15.483Z,76.40
2022-07-29T23:38:42.477Z,76.70
2022-07-29T23:41:09.924Z,77.30
2022-07-29T23:43:37.137Z,77.60
2022-07-29T23:46:04.055Z,78.00
2022-07-29T23:48:34.681Z,78.50
2022-07-29T23:51:01.721Z,79.40
2022-07-29T23:53:28.652Z,80.00
2022-07-29T23:55:55.638Z,80.70
2022-07-29T23:58:22.535Z,81.40
